sensor_id;sensor_type;location;lat;lon;timestamp;pressure;altitude;pressure_sealevel;temperature;humidity
37610;BME280;23457;51.966;8.230;2022-12-07T00:01:32;100843.22;;;5.31;100.00
37610;BME280;23457;51.966;8.230;2022-12-07T00:04:00;100845.53;;;5.25;100.00
37610;BME280;23457;51.966;8.230;2022-12-07T00:06:37;100841.31;;;5.27;100.00
37610;BME280;23457;51.966;8.230;2022-12-07T00:09:06;100841.53;;;5.33;100.00
37610;BME280;23457;51.966;8.230;2022-12-07T00:11:33;100835.00;;;5.42;100.00
37610;BME280;23457;51.966;8.230;2022-12-07T00:14:03;100834.59;;;5.53;100.00
37610;BME280;23457;51.966;8.230;2022-12-07T00:16:33;100826.13;;;5.57;100.00
37610;BME280;23457;51.966;8.230;2022-12-07T00:19:02;100827.97;;;5.60;100.00
37610;BME280;23457;51.966;8.230;2022-12-07T00:21:32;100824.69;;;5.88;100.00
37610;BME280;23457;51.966;8.230;2022-12-07T00:24:02;100834.97;;;5.86;100.00
37610;BME280;23457;51.966;8.230;2022-12-07T00:26:31;100826.25;;;5.60;100.00
37610;BME280;23457;51.966;8.230;2022-12-07T00:29:05;100836.06;;;5.69;100.00
37610;BME280;23457;51.966;8.230;2022-12-07T00:31:35;100822.50;;;5.74;100.00
37610;BME280;23457;51.966;8.230;2022-12-07T00:34:17;100831.22;;;5.78;100.00
37610;BME280;23457;51.966;8.230;2022-12-07T00:36:45;100825.50;;;5.63;100.00
37610;BME280;23457;51.966;8.230;2022-12-07T00:39:12;100827.31;;;5.21;100.00
37610;BME280;23457;51.966;8.230;2022-12-07T00:41:39;100829.97;;;5.67;100.00
37610;BME280;23457;51.966;8.230;2022-12-07T00:44:06;100825.22;;;5.55;100.00
37610;BME280;23457;51.966;8.230;2022-12-07T00:46:36;100830.22;;;5.74;100.00
37610;BME280;23457;51.966;8.230;2022-12-07T00:49:03;100818.66;;;5.87;100.00
37610;BME280;23457;51.966;8.230;2022-12-07T00:51:30;100820.06;;;6.01;100.00
37610;BME280;23457;51.966;8.230;2022-12-07T00:53:57;100821.28;;;5.65;100.00
37610;BME280;23457;51.966;8.230;2022-12-07T00:56:27;100814.47;;;5.89;100.00
37610;BME280;23457;51.966;8.230;2022-12-07T00:58:59;100814.69;;;5.95;100.00
37610;BME280;23457;51.966;8.230;2022-12-07T01:01:29;100815.03;;;6.04;100.00
37610;BME280;23457;51.966;8.230;2022-12-07T01:03:56;100804.78;;;6.06;100.00
37610;BME280;23457;51.966;8.230;2022-12-07T01:06:24;100809.69;;;6.24;100.00
37610;BME280;23457;51.966;8.230;2022-12-07T01:08:51;100812.66;;;6.10;100.00
37610;BME280;23457;51.966;8.230;2022-12-07T01:11:20;100820.47;;;5.88;100.00
37610;BME280;23457;51.966;8.230;2022-12-07T01:13:48;100817.38;;;5.98;100.00
37610;BME280;23457;51.966;8.230;2022-12-07T01:16:17;100813.41;;;6.08;100.00
37610;BME280;23457;51.966;8.230;2022-12-07T01:18:47;100816.94;;;5.64;100.00
37610;BME280;23457;51.966;8.230;2022-12-07T01:21:17;100817.16;;;5.70;100.00
37610;BME280;23457;51.966;8.230;2022-12-07T01:23:44;100813.75;;;5.71;100.00
37610;BME280;23457;51.966;8.230;2022-12-07T01:26:13;100814.34;;;6.10;100.00
37610;BME280;23457;51.966;8.230;2022-12-07T01:28:40;100817.94;;;6.14;100.00
37610;BME280;23457;51.966;8.230;2022-12-07T01:31:12;100816.09;;;5.87;100.00
37610;BME280;23457;51.966;8.230;2022-12-07T01:33:43;100820.25;;;6.06;100.00
37610;BME280;23457;51.966;8.230;2022-12-07T01:36:25;100825.13;;;5.98;100.00
37610;BME280;23457;51.966;8.230;2022-12-07T01:38:58;100828.31;;;5.91;100.00
37610;BME280;23457;51.966;8.230;2022-12-07T01:41:28;100826.28;;;5.84;100.00
37610;BME280;23457;51.966;8.230;2022-12-07T01:44:18;100828.31;;;5.91;100.00
37610;BME280;23457;51.966;8.230;2022-12-07T01:46:46;100824.47;;;6.28;100.00
37610;BME280;23457;51.966;8.230;2022-12-07T01:52:04;100829.22;;;6.41;100.00
37610;BME280;23457;51.966;8.230;2022-12-07T01:54:34;100824.53;;;6.55;100.00
37610;BME280;23457;51.966;8.230;2022-12-07T01:57:04;100826.16;;;6.27;100.00
37610;BME280;23457;51.966;8.230;2022-12-07T01:59:33;100818.53;;;6.30;100.00
37610;BME280;23457;51.966;8.230;2022-12-07T02:02:02;100821.25;;;6.35;100.00
37610;BME280;23457;51.966;8.230;2022-12-07T02:04:30;100822.81;;;6.30;100.00
37610;BME280;23457;51.966;8.230;2022-12-07T02:06:57;100817.81;;;6.10;100.00
37610;BME280;23457;51.966;8.230;2022-12-07T02:09:27;100822.00;;;5.85;100.00
37610;BME280;23457;51.966;8.230;2022-12-07T02:11:54;100826.88;;;5.99;100.00
37610;BME280;23457;51.966;8.230;2022-12-07T02:14:21;100818.88;;;6.16;100.00
37610;BME280;23457;51.966;8.230;2022-12-07T02:22:18;100815.34;;;6.14;100.00
37610;BME280;23457;51.966;8.230;2022-12-07T02:25:03;100822.34;;;5.92;100.00
37610;BME280;23457;51.966;8.230;2022-12-07T02:27:56;100822.72;;;5.81;100.00
37610;BME280;23457;51.966;8.230;2022-12-07T02:30:28;100826.28;;;5.84;100.00
37610;BME280;23457;51.966;8.230;2022-12-07T02:33:05;100818.19;;;5.51;100.00
37610;BME280;23457;51.966;8.230;2022-12-07T02:35:40;100823.75;;;5.62;100.00
37610;BME280;23457;51.966;8.230;2022-12-07T02:38:14;100805.19;;;5.48;100.00
37610;BME280;23457;51.966;8.230;2022-12-07T02:40:54;100809.94;;;5.84;100.00
37610;BME280;23457;51.966;8.230;2022-12-07T02:43:27;100810.00;;;5.85;100.00
37610;BME280;23457;51.966;8.230;2022-12-07T02:45:59;100810.31;;;5.48;100.00
37610;BME280;23457;51.966;8.230;2022-12-07T02:48:28;100813.59;;;5.89;100.00
37610;BME280;23457;51.966;8.230;2022-12-07T02:50:55;100802.53;;;5.69;100.00
37610;BME280;23457;51.966;8.230;2022-12-07T02:53:35;100804.75;;;5.60;100.00
37610;BME280;23457;51.966;8.230;2022-12-07T02:59:07;100810.72;;;5.59;100.00
37610;BME280;23457;51.966;8.230;2022-12-07T03:04:28;100798.16;;;5.44;100.00
37610;BME280;23457;51.966;8.230;2022-12-07T03:07:05;100801.09;;;5.31;100.00
37610;BME280;23457;51.966;8.230;2022-12-07T03:12:19;100807.28;;;5.36;100.00
37610;BME280;23457;51.966;8.230;2022-12-07T03:14:54;100812.03;;;5.25;100.00
37610;BME280;23457;51.966;8.230;2022-12-07T03:17:32;100803.78;;;5.56;100.00
37610;BME280;23457;51.966;8.230;2022-12-07T03:20:04;100810.72;;;5.59;100.00
37610;BME280;23457;51.966;8.230;2022-12-07T03:22:43;100808.63;;;5.26;100.00
37610;BME280;23457;51.966;8.230;2022-12-07T03:25:13;100799.06;;;5.46;100.00
37610;BME280;23457;51.966;8.230;2022-12-07T03:27:57;100798.81;;;5.38;100.00
37610;BME280;23457;51.966;8.230;2022-12-07T03:30:30;100798.47;;;5.29;100.00
37610;BME280;23457;51.966;8.230;2022-12-07T03:33:32;100791.47;;;5.27;100.00
37610;BME280;23457;51.966;8.230;2022-12-07T03:36:10;100798.06;;;5.20;100.00
37610;BME280;23457;51.966;8.230;2022-12-07T03:38:45;100790.88;;;4.89;100.00
37610;BME280;23457;51.966;8.230;2022-12-07T03:41:23;100796.63;;;5.04;100.00
37610;BME280;23457;51.966;8.230;2022-12-07T03:43:51;100795.84;;;5.07;100.00
37610;BME280;23457;51.966;8.230;2022-12-07T03:54:44;100799.47;;;4.90;100.00
37610;BME280;23457;51.966;8.230;2022-12-07T03:57:14;100795.81;;;4.85;100.00
37610;BME280;23457;51.966;8.230;2022-12-07T03:59:41;100789.06;;;5.09;100.00
37610;BME280;23457;51.966;8.230;2022-12-07T04:02:11;100788.44;;;5.15;100.00
37610;BME280;23457;51.966;8.230;2022-12-07T04:04:39;100783.06;;;4.88;100.00
37610;BME280;23457;51.966;8.230;2022-12-07T04:07:06;100778.81;;;4.88;100.00
37610;BME280;23457;51.966;8.230;2022-12-07T04:09:33;100783.69;;;4.82;100.00
37610;BME280;23457;51.966;8.230;2022-12-07T04:11:59;100790.00;;;4.47;100.00
37610;BME280;23457;51.966;8.230;2022-12-07T04:14:26;100785.09;;;4.74;100.00
37610;BME280;23457;51.966;8.230;2022-12-07T04:16:57;100789.56;;;4.78;100.00
37610;BME280;23457;51.966;8.230;2022-12-07T04:19:26;100794.72;;;4.78;100.00
37610;BME280;23457;51.966;8.230;2022-12-07T04:21:54;100802.41;;;4.57;100.00
37610;BME280;23457;51.966;8.230;2022-12-07T04:24:21;100798.94;;;4.55;100.00
37610;BME280;23457;51.966;8.230;2022-12-07T04:26:48;100796.72;;;4.64;100.00
37610;BME280;23457;51.966;8.230;2022-12-07T04:29:19;100797.78;;;4.69;100.00
37610;BME280;23457;51.966;8.230;2022-12-07T04:31:46;100792.91;;;4.55;100.00
37610;BME280;23457;51.966;8.230;2022-12-07T04:34:13;100797.78;;;4.69;100.00
37610;BME280;23457;51.966;8.230;2022-12-07T04:36:41;100792.63;;;4.69;100.00
37610;BME280;23457;51.966;8.230;2022-12-07T04:39:18;100801.09;;;4.25;100.00
37610;BME280;23457;51.966;8.230;2022-12-07T04:41:45;100800.06;;;4.41;100.00
37610;BME280;23457;51.966;8.230;2022-12-07T04:44:12;100797.66;;;4.46;100.00
37610;BME280;23457;51.966;8.230;2022-12-07T04:46:41;100797.06;;;4.32;100.00
37610;BME280;23457;51.966;8.230;2022-12-07T04:49:11;100798.44;;;4.24;100.00
37610;BME280;23457;51.966;8.230;2022-12-07T04:51:38;100805.56;;;4.10;100.00
37610;BME280;23457;51.966;8.230;2022-12-07T04:54:05;100803.44;;;4.40;100.00
37610;BME280;23457;51.966;8.230;2022-12-07T04:56:31;100797.66;;;4.46;100.00
37610;BME280;23457;51.966;8.230;2022-12-07T04:58:58;100806.97;;;4.23;100.00
37610;BME280;23457;51.966;8.230;2022-12-07T05:01:25;100804.03;;;4.35;100.00
37610;BME280;23457;51.966;8.230;2022-12-07T05:03:54;100792.69;;;4.50;100.00
37610;BME280;23457;51.966;8.230;2022-12-07T05:06:21;100799.03;;;4.58;100.00
37610;BME280;23457;51.966;8.230;2022-12-07T05:08:47;100797.56;;;4.44;100.00
37610;BME280;23457;51.966;8.230;2022-12-07T05:11:14;100789.94;;;4.46;100.00
37610;BME280;23457;51.966;8.230;2022-12-07T05:14:03;100793.38;;;4.46;100.00
37610;BME280;23457;51.966;8.230;2022-12-07T05:16:30;100793.78;;;4.55;100.00
37610;BME280;23457;51.966;8.230;2022-12-07T05:18:57;100794.19;;;4.45;100.00
37610;BME280;23457;51.966;8.230;2022-12-07T05:21:30;100798.09;;;4.56;100.00
37610;BME280;23457;51.966;8.230;2022-12-07T05:23:57;100792.31;;;4.62;100.00
37610;BME280;23457;51.966;8.230;2022-12-07T05:26:23;100799.69;;;4.53;100.00
37610;BME280;23457;51.966;8.230;2022-12-07T05:29:13;100800.94;;;4.42;100.00
37610;BME280;23457;51.966;8.230;2022-12-07T05:31:40;100804.25;;;4.20;100.00
37610;BME280;23457;51.966;8.230;2022-12-07T05:34:07;100787.84;;;4.37;100.00
37610;BME280;23457;51.966;8.230;2022-12-07T05:36:33;100796.22;;;4.52;100.00
37610;BME280;23457;51.966;8.230;2022-12-07T05:39:00;100793.44;;;4.48;100.00
37610;BME280;23457;51.966;8.230;2022-12-07T05:41:27;100795.66;;;4.59;100.00
37610;BME280;23457;51.966;8.230;2022-12-07T05:44:12;100791.66;;;4.66;100.00
37610;BME280;23457;51.966;8.230;2022-12-07T05:46:40;100786.88;;;4.54;100.00
37610;BME280;23457;51.966;8.230;2022-12-07T05:49:07;100787.78;;;4.56;100.00
37610;BME280;23457;51.966;8.230;2022-12-07T05:51:50;100787.63;;;4.52;100.00
37610;BME280;23457;51.966;8.230;2022-12-07T05:54:17;100789.19;;;4.48;100.00
37610;BME280;23457;51.966;8.230;2022-12-07T05:56:45;100788.50;;;4.52;100.00
37610;BME280;23457;51.966;8.230;2022-12-07T05:59:12;100777.97;;;4.67;100.00
37610;BME280;23457;51.966;8.230;2022-12-07T06:01:55;100768.03;;;4.55;100.00
37610;BME280;23457;51.966;8.230;2022-12-07T06:04:29;100784.59;;;4.41;100.00
37610;BME280;23457;51.966;8.230;2022-12-07T06:06:56;100789.69;;;4.40;100.00
37610;BME280;23457;51.966;8.230;2022-12-07T06:09:24;100786.09;;;4.36;100.00
37610;BME280;23457;51.966;8.230;2022-12-07T06:11:51;100779.31;;;4.38;100.00
37610;BME280;23457;51.966;8.230;2022-12-07T06:14:40;100785.09;;;4.32;100.00
37610;BME280;23457;51.966;8.230;2022-12-07T06:17:07;100786.38;;;4.42;100.00
37610;BME280;23457;51.966;8.230;2022-12-07T06:19:34;100786.88;;;4.54;100.00
37610;BME280;23457;51.966;8.230;2022-12-07T06:22:02;100793.00;;;4.37;100.00
37610;BME280;23457;51.966;8.230;2022-12-07T06:24:32;100791.66;;;4.05;100.00
37610;BME280;23457;51.966;8.230;2022-12-07T06:26:59;100788.84;;;4.20;100.00
37610;BME280;23457;51.966;8.230;2022-12-07T06:29:28;100777.94;;;4.25;100.00
37610;BME280;23457;51.966;8.230;2022-12-07T06:31:56;100781.31;;;4.24;100.00
37610;BME280;23457;51.966;8.230;2022-12-07T06:34:25;100774.47;;;4.25;100.00
37610;BME280;23457;51.966;8.230;2022-12-07T06:36:52;100784.34;;;4.35;100.00
37610;BME280;23457;51.966;8.230;2022-12-07T06:39:26;100782.13;;;4.23;100.00
37610;BME280;23457;51.966;8.230;2022-12-07T06:41:59;100783.22;;;4.09;100.00
37610;BME280;23457;51.966;8.230;2022-12-07T06:44:27;100780.00;;;4.13;100.00
37610;BME280;23457;51.966;8.230;2022-12-07T06:46:54;100782.06;;;4.22;100.00
37610;BME280;23457;51.966;8.230;2022-12-07T06:49:46;100770.75;;;4.18;100.00
37610;BME280;23457;51.966;8.230;2022-12-07T06:52:12;100785.16;;;4.34;100.00
37610;BME280;23457;51.966;8.230;2022-12-07T06:54:42;100783.47;;;4.35;100.00
37610;BME280;23457;51.966;8.230;2022-12-07T06:57:09;100782.28;;;4.26;100.00
37610;BME280;23457;51.966;8.230;2022-12-07T06:59:36;100776.91;;;4.22;100.00
37610;BME280;23457;51.966;8.230;2022-12-07T07:02:03;100790.38;;;3.76;100.00
37610;BME280;23457;51.966;8.230;2022-12-07T07:04:35;100786.69;;;4.10;100.00
37610;BME280;23457;51.966;8.230;2022-12-07T07:07:02;100793.06;;;4.18;100.00
37610;BME280;23457;51.966;8.230;2022-12-07T07:09:29;100786.31;;;4.21;100.00
37610;BME280;23457;51.966;8.230;2022-12-07T07:11:55;100806.53;;;4.12;100.00
37610;BME280;23457;51.966;8.230;2022-12-07T07:14:22;100795.22;;;4.09;100.00
37610;BME280;23457;51.966;8.230;2022-12-07T07:16:48;100795.50;;;3.76;100.00
37610;BME280;23457;51.966;8.230;2022-12-07T07:19:19;100796.31;;;3.75;100.00
37610;BME280;23457;51.966;8.230;2022-12-07T07:21:53;100792.03;;;3.95;100.00
37610;BME280;23457;51.966;8.230;2022-12-07T07:24:19;100798.22;;;3.99;100.00
37610;BME280;23457;51.966;8.230;2022-12-07T07:26:46;100797.31;;;3.98;100.00
37610;BME280;23457;51.966;8.230;2022-12-07T07:29:15;100801.72;;;4.01;100.00
37610;BME280;23457;51.966;8.230;2022-12-07T07:31:42;100799.97;;;4.00;100.00
37610;BME280;23457;51.966;8.230;2022-12-07T07:34:12;100807.06;;;3.86;100.00
37610;BME280;23457;51.966;8.230;2022-12-07T07:36:38;100814.94;;;3.89;100.00
37610;BME280;23457;51.966;8.230;2022-12-07T07:39:05;100816.88;;;3.75;100.00
37610;BME280;23457;51.966;8.230;2022-12-07T07:41:38;100816.47;;;3.85;100.00
37610;BME280;23457;51.966;8.230;2022-12-07T07:44:11;100818.38;;;3.89;100.00
37610;BME280;23457;51.966;8.230;2022-12-07T07:46:38;100826.25;;;3.55;100.00
37610;BME280;23457;51.966;8.230;2022-12-07T07:49:05;100839.19;;;3.57;100.00
37610;BME280;23457;51.966;8.230;2022-12-07T07:51:32;100825.66;;;3.80;100.00
37610;BME280;23457;51.966;8.230;2022-12-07T07:54:01;100834.59;;;3.69;100.00
37610;BME280;23457;51.966;8.230;2022-12-07T07:56:32;100825.97;;;3.67;100.00
37610;BME280;23457;51.966;8.230;2022-12-07T07:58:59;100830.16;;;3.84;100.00
37610;BME280;23457;51.966;8.230;2022-12-07T08:01:32;100828.13;;;3.77;100.00
37610;BME280;23457;51.966;8.230;2022-12-07T08:03:59;100836.66;;;3.76;100.00
37610;BME280;23457;51.966;8.230;2022-12-07T08:06:26;100830.88;;;3.82;100.00
37610;BME280;23457;51.966;8.230;2022-12-07T08:08:57;100838.81;;;3.86;100.00
37610;BME280;23457;51.966;8.230;2022-12-07T08:11:26;100832.47;;;3.78;100.00
37610;BME280;23457;51.966;8.230;2022-12-07T08:13:56;100833.78;;;3.70;100.00
37610;BME280;23457;51.966;8.230;2022-12-07T08:16:22;100832.41;;;3.59;100.00
37610;BME280;23457;51.966;8.230;2022-12-07T08:18:49;100833.72;;;3.69;100.00
37610;BME280;23457;51.966;8.230;2022-12-07T08:21:15;100828.00;;;3.56;100.00
37610;BME280;23457;51.966;8.230;2022-12-07T08:23:43;100816.97;;;3.77;100.00
37610;BME280;23457;51.966;8.230;2022-12-07T08:26:12;100828.78;;;3.73;100.00
37610;BME280;23457;51.966;8.230;2022-12-07T08:28:39;100838.09;;;3.52;100.00
37610;BME280;23457;51.966;8.230;2022-12-07T08:31:09;100826.25;;;3.92;100.00
37610;BME280;23457;51.966;8.230;2022-12-07T08:33:37;100827.78;;;4.08;100.00
37610;BME280;23457;51.966;8.230;2022-12-07T08:36:07;100831.84;;;4.03;100.00
37610;BME280;23457;51.966;8.230;2022-12-07T08:38:35;100826.50;;;4.18;100.00
37610;BME280;23457;51.966;8.230;2022-12-07T08:41:02;100822.16;;;4.17;100.00
37610;BME280;23457;51.966;8.230;2022-12-07T08:43:30;100819.88;;;4.04;100.00
37610;BME280;23457;51.966;8.230;2022-12-07T08:46:09;100826.81;;;4.06;100.00
37610;BME280;23457;51.966;8.230;2022-12-07T08:51:33;100826.56;;;4.00;100.00
37610;BME280;23457;51.966;8.230;2022-12-07T08:54:01;100822.97;;;3.77;100.00
37610;BME280;23457;51.966;8.230;2022-12-07T08:56:55;100826.38;;;3.76;100.00
37610;BME280;23457;51.966;8.230;2022-12-07T08:59:26;100822.09;;;3.77;100.00
37610;BME280;23457;51.966;8.230;2022-12-07T09:01:53;100813.28;;;3.72;100.00
37610;BME280;23457;51.966;8.230;2022-12-07T09:04:23;100807.97;;;3.86;100.00
37610;BME280;23457;51.966;8.230;2022-12-07T09:06:50;100822.97;;;3.96;100.00
37610;BME280;23457;51.966;8.230;2022-12-07T09:09:17;100815.25;;;4.16;100.00
37610;BME280;23457;51.966;8.230;2022-12-07T09:11:44;100828.75;;;4.31;100.00
37610;BME280;23457;51.966;8.230;2022-12-07T09:14:14;100826.06;;;4.09;100.00
37610;BME280;23457;51.966;8.230;2022-12-07T09:16:41;100829.34;;;4.05;100.00
37610;BME280;23457;51.966;8.230;2022-12-07T09:19:08;100831.38;;;3.92;100.00
37610;BME280;23457;51.966;8.230;2022-12-07T09:21:36;100832.31;;;4.14;100.00
37610;BME280;23457;51.966;8.230;2022-12-07T09:24:03;100829.47;;;4.27;100.00
37610;BME280;23457;51.966;8.230;2022-12-07T09:26:29;100830.41;;;4.29;100.00
37610;BME280;23457;51.966;8.230;2022-12-07T09:28:56;100825.78;;;4.22;100.00
37610;BME280;23457;51.966;8.230;2022-12-07T09:31:23;100831.91;;;4.45;100.00
37610;BME280;23457;51.966;8.230;2022-12-07T09:34:00;100834.75;;;4.51;100.00
37610;BME280;23457;51.966;8.230;2022-12-07T09:36:28;100828.66;;;4.69;100.00
37610;BME280;23457;51.966;8.230;2022-12-07T09:38:58;100832.38;;;4.76;100.00
37610;BME280;23457;51.966;8.230;2022-12-07T09:41:50;100830.22;;;4.45;100.00
37610;BME280;23457;51.966;8.230;2022-12-07T09:44:24;100835.06;;;4.58;100.00
37610;BME280;23457;51.966;8.230;2022-12-07T09:46:51;100837.75;;;4.81;100.00
37610;BME280;23457;51.966;8.230;2022-12-07T09:49:21;100830.91;;;4.81;100.00
37610;BME280;23457;51.966;8.230;2022-12-07T09:52:03;100823.88;;;4.99;100.00
37610;BME280;23457;51.966;8.230;2022-12-07T09:55:11;100822.91;;;4.75;100.00
37610;BME280;23457;51.966;8.230;2022-12-07T09:57:39;100815.63;;;5.08;100.00
37610;BME280;23457;51.966;8.230;2022-12-07T10:00:17;100821.69;;;4.88;100.00
37610;BME280;23457;51.966;8.230;2022-12-07T10:02:56;100819.19;;;4.89;100.00
37610;BME280;23457;51.966;8.230;2022-12-07T10:05:38;100818.44;;;4.92;100.00
37610;BME280;23457;51.966;8.230;2022-12-07T10:08:10;100821.53;;;5.26;100.00
37610;BME280;23457;51.966;8.230;2022-12-07T10:10:39;100822.00;;;5.16;100.00
37610;BME280;23457;51.966;8.230;2022-12-07T10:13:11;100824.38;;;5.12;100.00
37610;BME280;23457;51.966;8.230;2022-12-07T10:15:48;100820.69;;;5.05;100.00
37610;BME280;23457;51.966;8.230;2022-12-07T10:18:34;100820.75;;;5.07;100.00
37610;BME280;23457;51.966;8.230;2022-12-07T10:21:19;100817.44;;;5.31;100.00
37610;BME280;23457;51.966;8.230;2022-12-07T10:24:02;100810.66;;;5.57;100.00
37610;BME280;23457;51.966;8.230;2022-12-07T10:26:40;100805.03;;;5.44;100.00
37610;BME280;23457;51.966;8.230;2022-12-07T10:29:24;100813.13;;;5.32;100.00
37610;BME280;23457;51.966;8.230;2022-12-07T10:32:00;100811.31;;;5.74;100.00
37610;BME280;23457;51.966;8.230;2022-12-07T10:37:20;100801.59;;;5.89;100.00
37610;BME280;23457;51.966;8.230;2022-12-07T10:39:54;100803.88;;;5.83;100.00
37610;BME280;23457;51.966;8.230;2022-12-07T10:42:25;100799.19;;;5.95;100.00
37610;BME280;23457;51.966;8.230;2022-12-07T10:48:15;100785.69;;;6.26;100.00
37610;BME280;23457;51.966;8.230;2022-12-07T10:54:16;100783.22;;;6.29;100.00
37610;BME280;23457;51.966;8.230;2022-12-07T11:06:10;100776.00;;;6.21;100.00
37610;BME280;23457;51.966;8.230;2022-12-07T11:08:54;100775.06;;;6.17;100.00
37610;BME280;23457;51.966;8.230;2022-12-07T11:11:36;100776.00;;;5.95;100.00
37610;BME280;23457;51.966;8.230;2022-12-07T11:14:25;100770.44;;;6.08;100.00
37610;BME280;23457;51.966;8.230;2022-12-07T11:17:34;100779.41;;;6.43;100.00
37610;BME280;23457;51.966;8.230;2022-12-07T11:37:37;100744.97;;;6.43;100.00
37610;BME280;23457;51.966;8.230;2022-12-07T11:40:17;100747.16;;;6.58;100.00
37610;BME280;23457;51.966;8.230;2022-12-07T11:42:52;100745.03;;;6.21;100.00
37610;BME280;23457;51.966;8.230;2022-12-07T11:45:26;100745.56;;;5.87;100.00
37610;BME280;23457;51.966;8.230;2022-12-07T11:47:59;100747.53;;;5.92;100.00
37610;BME280;23457;51.966;8.230;2022-12-07T11:50:36;100745.78;;;6.17;100.00
37610;BME280;23457;51.966;8.230;2022-12-07T11:58:31;100728.72;;;5.96;100.00
37610;BME280;23457;51.966;8.230;2022-12-07T12:06:37;100720.47;;;6.57;99.58
37610;BME280;23457;51.966;8.230;2022-12-07T12:09:17;100720.03;;;6.70;99.99
37610;BME280;23457;51.966;8.230;2022-12-07T12:23:09;100696.47;;;7.48;95.58
37610;BME280;23457;51.966;8.230;2022-12-07T12:25:42;100706.41;;;7.33;94.52
37610;BME280;23457;51.966;8.230;2022-12-07T12:31:15;100699.44;;;6.45;93.62
37610;BME280;23457;51.966;8.230;2022-12-07T12:33:48;100711.47;;;6.73;94.33
37610;BME280;23457;51.966;8.230;2022-12-07T12:46:47;100706.47;;;6.77;94.48
37610;BME280;23457;51.966;8.230;2022-12-07T12:51:44;100692.38;;;6.95;94.54
37610;BME280;23457;51.966;8.230;2022-12-07T12:54:37;100692.78;;;6.26;91.90
37610;BME280;23457;51.966;8.230;2022-12-07T12:57:27;100689.25;;;6.24;96.04
37610;BME280;23457;51.966;8.230;2022-12-07T13:02:27;100687.34;;;6.44;95.11
37610;BME280;23457;51.966;8.230;2022-12-07T13:21:01;100684.22;;;6.54;93.95
37610;BME280;23457;51.966;8.230;2022-12-07T13:23:33;100680.06;;;6.59;93.29
37610;BME280;23457;51.966;8.230;2022-12-07T13:28:49;100675.25;;;6.43;94.35
37610;BME280;23457;51.966;8.230;2022-12-07T13:33:52;100666.38;;;6.62;93.57
37610;BME280;23457;51.966;8.230;2022-12-07T13:36:26;100654.44;;;6.65;91.89
37610;BME280;23457;51.966;8.230;2022-12-07T13:38:57;100657.47;;;6.52;92.89
37610;BME280;23457;51.966;8.230;2022-12-07T13:41:26;100666.25;;;6.59;92.80
37610;BME280;23457;51.966;8.230;2022-12-07T13:44:10;100654.22;;;6.59;92.76
37610;BME280;23457;51.966;8.230;2022-12-07T13:49:30;100657.75;;;6.61;92.20
37610;BME280;23457;51.966;8.230;2022-12-07T13:52:20;100653.91;;;6.22;91.53
37610;BME280;23457;51.966;8.230;2022-12-07T13:55:13;100652.63;;;6.63;91.91
37610;BME280;23457;51.966;8.230;2022-12-07T13:57:40;100651.53;;;6.55;91.81
37610;BME280;23457;51.966;8.230;2022-12-07T14:00:34;100649.38;;;6.41;92.12
37610;BME280;23457;51.966;8.230;2022-12-07T14:03:29;100649.72;;;6.52;91.82
37610;BME280;23457;51.966;8.230;2022-12-07T14:06:20;100639.59;;;6.58;92.34
37610;BME280;23457;51.966;8.230;2022-12-07T14:08:48;100641.09;;;6.52;92.29
37610;BME280;23457;51.966;8.230;2022-12-07T14:11:29;100636.28;;;5.85;93.52
37610;BME280;23457;51.966;8.230;2022-12-07T14:13:59;100646.00;;;5.90;93.18
37610;BME280;23457;51.966;8.230;2022-12-07T14:16:35;100650.69;;;6.02;92.67
37610;BME280;23457;51.966;8.230;2022-12-07T14:19:05;100646.00;;;5.90;93.12
37610;BME280;23457;51.966;8.230;2022-12-07T14:21:33;100637.63;;;5.97;93.18
37610;BME280;23457;51.966;8.230;2022-12-07T14:24:15;100645.88;;;6.13;92.00
37610;BME280;23457;51.966;8.230;2022-12-07T14:26:44;100643.69;;;6.25;91.06
37610;BME280;23457;51.966;8.230;2022-12-07T14:31:52;100631.75;;;6.28;92.70
37610;BME280;23457;51.966;8.230;2022-12-07T14:34:23;100633.19;;;6.19;91.69
37610;BME280;23457;51.966;8.230;2022-12-07T14:36:50;100626.59;;;6.01;93.30
37610;BME280;23457;51.966;8.230;2022-12-07T14:39:16;100631.25;;;6.13;93.24
37610;BME280;23457;51.966;8.230;2022-12-07T14:41:43;100626.25;;;6.18;93.28
37610;BME280;23457;51.966;8.230;2022-12-07T14:44:23;100625.75;;;5.77;94.29
37610;BME280;23457;51.966;8.230;2022-12-07T14:46:55;100621.50;;;5.79;95.61
37610;BME280;23457;51.966;8.230;2022-12-07T14:49:41;100628.00;;;5.68;95.68
37610;BME280;23457;51.966;8.230;2022-12-07T14:52:16;100630.47;;;5.65;95.32
37610;BME280;23457;51.966;8.230;2022-12-07T14:55:04;100621.00;;;5.64;96.31
37610;BME280;23457;51.966;8.230;2022-12-07T14:57:34;100617.69;;;5.68;97.33
37610;BME280;23457;51.966;8.230;2022-12-07T15:00:01;100617.69;;;5.92;96.39
37610;BME280;23457;51.966;8.230;2022-12-07T15:02:28;100618.66;;;5.71;97.24
37610;BME280;23457;51.966;8.230;2022-12-07T15:04:54;100623.81;;;5.71;98.01
37610;BME280;23457;51.966;8.230;2022-12-07T15:07:21;100629.13;;;5.51;99.58
37610;BME280;23457;51.966;8.230;2022-12-07T15:09:48;100627.09;;;5.66;98.98
37610;BME280;23457;51.966;8.230;2022-12-07T15:12:15;100621.78;;;5.37;99.66
37610;BME280;23457;51.966;8.230;2022-12-07T15:14:42;100630.31;;;5.60;100.00
37610;BME280;23457;51.966;8.230;2022-12-07T15:17:10;100633.63;;;5.56;99.95
37610;BME280;23457;51.966;8.230;2022-12-07T15:19:51;100614.72;;;5.56;99.96
37610;BME280;23457;51.966;8.230;2022-12-07T15:22:18;100622.28;;;5.76;99.62
37610;BME280;23457;51.966;8.230;2022-12-07T15:24:44;100623.72;;;5.43;99.56
37610;BME280;23457;51.966;8.230;2022-12-07T15:27:11;100618.16;;;5.56;99.93
37610;BME280;23457;51.966;8.230;2022-12-07T15:29:38;100622.34;;;5.29;100.00